Time;durP1;ratioP1;P1;durP2;ratioP2;P2;SDS_P1;SDS_P2;PMS_P1;PMS_P2;Temp;Humidity;BMP_temperature;BMP_pressure;BME280_temperature;BME280_humidity;BME280_pressure;Samples;Min_cycle;Max_cycle;Signal;HPM_P1;HPM_P2
2022/08/22 00:01:52;;;;;;;12.85;10.07;;;15.50;99.90;;;;;;4960697;28;21048;-49
2022/08/22 00:04:50;;;;;;;15.85;10.77;;;15.40;99.90;;;;;;4974412;28;20060;-49
2022/08/22 00:07:40;;;;;;;13.00;10.23;;;15.40;99.90;;;;;;4965367;28;20053;-49
2022/08/22 00:10:24;;;;;;;12.55;9.18;;;15.40;99.90;;;;;;4981140;28;20497;-50
2022/08/22 00:13:08;;;;;;;11.68;8.00;;;15.40;99.90;;;;;;4975802;28;20606;-48
2022/08/22 00:15:48;;;;;;;12.20;9.13;;;15.30;99.90;;;;;;4980572;28;20054;-52
2022/08/22 00:18:30;;;;;;;10.05;8.68;;;15.30;99.90;;;;;;4980532;28;20718;-50
2022/08/22 00:21:29;;;;;;;18.13;11.35;;;15.30;99.90;;;;;;4980354;28;20065;-48
2022/08/22 00:24:05;;;;;;;22.13;11.88;;;15.30;99.90;;;;;;4989160;28;20095;-51
2022/08/22 00:26:33;;;;;;;15.25;11.40;;;15.30;99.90;;;;;;5018624;28;20087;-51
2022/08/22 00:29:07;;;;;;;13.93;10.75;;;15.20;99.90;;;;;;5022065;28;20096;-49
2022/08/22 00:31:39;;;;;;;13.65;9.65;;;15.20;99.90;;;;;;5022817;28;20478;-49
2022/08/22 00:34:04;;;;;;;11.50;8.75;;;15.20;99.90;;;;;;5022407;28;20511;-47
2022/08/22 00:36:33;;;;;;;11.85;8.20;;;15.20;99.90;;;;;;5023209;28;20053;-48
2022/08/22 00:39:08;;;;;;;9.27;8.05;;;15.20;99.90;;;;;;5022235;28;20526;-50
2022/08/22 00:42:16;;;;;;;12.23;8.85;;;15.20;99.90;;;;;;5022415;28;20041;-49
2022/08/22 00:44:57;;;;;;;12.23;10.18;;;15.20;99.90;;;;;;5020545;28;20131;-48
2022/08/22 00:47:32;;;;;;;11.27;9.57;;;15.10;99.90;;;;;;5022509;28;20136;-48
2022/08/22 00:50:36;;;;;;;10.20;7.97;;;15.20;99.90;;;;;;5014256;28;20069;-50
2022/08/22 00:53:50;;;;;;;9.45;7.40;;;15.20;99.90;;;;;;5022188;28;20898;-49
2022/08/22 00:56:19;;;;;;;11.27;8.30;;;15.10;99.90;;;;;;5021183;28;20065;-50
2022/08/22 00:58:51;;;;;;;12.27;9.75;;;15.10;99.90;;;;;;5020188;28;20061;-48
2022/08/22 01:01:27;;;;;;;10.60;8.65;;;15.10;99.90;;;;;;5015673;28;20045;-52
2022/08/22 01:04:21;;;;;;;15.70;10.65;;;15.10;99.90;;;;;;5026903;28;20049;-49
2022/08/22 01:07:25;;;;;;;11.20;7.85;;;15.10;99.90;;;;;;5025327;28;20503;-48
2022/08/22 01:10:09;;;;;;;9.68;7.75;;;15.10;99.90;;;;;;4983645;28;20050;-51
2022/08/22 01:13:03;;;;;;;15.45;10.55;;;15.00;99.90;;;;;;4962287;28;20141;-51
2022/08/22 01:15:33;;;;;;;15.73;10.57;;;15.00;99.90;;;;;;4982941;28;20062;-53
2022/08/22 01:18:21;;;;;;;10.27;7.97;;;14.90;99.90;;;;;;4983596;28;20147;-56
2022/08/22 01:21:14;;;;;;;10.27;8.30;;;14.90;99.90;;;;;;4979056;28;20094;-47
2022/08/22 01:25:16;;;;;;;9.23;8.05;;;14.90;99.90;;;;;;4984432;28;20101;-50
2022/08/22 01:27:26;;;;;;;14.45;7.78;;;14.80;99.90;;;;;;4983468;28;20057;-49
2022/08/22 01:30:11;;;;;;;9.60;7.47;;;14.70;99.90;;;;;;4990288;28;20058;-51
2022/08/22 01:33:15;;;;;;;7.07;5.80;;;14.70;99.90;;;;;;4983676;28;20112;-50
2022/08/22 01:35:41;;;;;;;;;;;14.70;99.90;;;;;;4981768;28;20089;-48
2022/08/22 01:38:31;;;;;;;8.98;7.35;;;14.60;99.90;;;;;;4983679;28;19981;-52
2022/08/22 01:41:09;;;;;;;10.77;9.10;;;14.60;99.90;;;;;;4998152;28;20527;-50
2022/08/22 01:43:41;;;;;;;11.82;8.73;;;14.50;99.90;;;;;;5026056;28;20704;-50
2022/08/22 01:46:37;;;;;;;10.70;8.87;;;14.40;99.90;;;;;;5026182;28;20124;-50
2022/08/22 01:49:06;;;;;;;10.23;8.43;;;14.40;99.90;;;;;;5024652;28;20315;-50
2022/08/22 01:52:01;;;;;;;11.63;8.27;;;14.30;99.90;;;;;;5028931;28;20054;-51
2022/08/22 01:54:54;;;;;;;9.27;7.38;;;14.20;99.90;;;;;;5046175;28;20127;-48
2022/08/22 01:57:22;;;;;;;8.55;6.38;;;14.10;99.90;;;;;;5046174;28;20434;-49
2022/08/22 01:59:52;;;;;;;8.15;6.93;;;14.00;99.90;;;;;;5044290;28;20143;-51
2022/08/22 02:02:54;;;;;;;7.93;6.40;;;13.90;99.90;;;;;;5042006;28;20057;-49
2022/08/22 02:05:23;;;;;;;9.02;6.22;;;13.90;99.90;;;;;;5040251;28;20619;-49
2022/08/22 02:08:19;;;;;;;11.45;6.90;;;13.90;99.90;;;;;;5046379;28;20405;-51
2022/08/22 02:11:11;;;;;;;8.82;6.38;;;13.90;99.90;;;;;;5044655;28;20499;-48
2022/08/22 02:13:44;;;;;;;6.40;5.80;;;13.80;99.90;;;;;;5042698;28;20037;-50
2022/08/22 02:16:19;;;;;;;7.38;6.43;;;13.80;99.90;;;;;;5045197;28;20053;-47
2022/08/22 02:19:08;;;;;;;6.03;5.45;;;13.80;99.90;;;;;;5044804;28;20484;-51
2022/08/22 02:22:03;;;;;;;4.90;4.13;;;13.80;99.90;;;;;;5040613;28;20151;-50
2022/08/22 02:24:32;;;;;;;8.02;6.10;;;13.80;99.90;;;;;;5044687;28;20045;-48
2022/08/22 02:27:22;;;;;;;6.75;4.70;;;13.80;99.90;;;;;;5044655;28;20132;-49
2022/08/22 02:29:51;;;;;;;5.97;4.55;;;13.70;99.90;;;;;;5039815;28;20053;-49
2022/08/22 02:32:38;;;;;;;4.30;3.50;;;13.70;99.90;;;;;;5044245;28;20052;-48
2022/08/22 02:35:26;;;;;;;4.35;3.55;;;13.70;99.90;;;;;;5044178;28;20049;-51
2022/08/22 02:37:57;;;;;;;3.97;2.72;;;13.70;99.90;;;;;;5045470;28;20040;-48
2022/08/22 02:40:33;;;;;;;2.63;2.25;;;13.60;99.90;;;;;;5045390;28;20467;-48
2022/08/22 02:43:25;;;;;;;4.07;3.40;;;13.60;99.90;;;;;;5045493;28;20044;-49
2022/08/22 02:46:12;;;;;;;4.10;3.17;;;13.50;99.90;;;;;;5038558;28;20055;-49
2022/08/22 02:48:43;;;;;;;5.43;3.53;;;13.60;99.90;;;;;;5044926;28;20616;-49
2022/08/22 02:51:33;;;;;;;4.07;3.60;;;13.50;99.90;;;;;;5036886;28;20061;-52
2022/08/22 02:54:15;;;;;;;5.30;4.80;;;13.50;99.90;;;;;;5043607;28;20052;-48
2022/08/22 02:56:52;;;;;;;6.43;4.43;;;13.50;99.90;;;;;;5044322;28;20181;-49
2022/08/22 03:00:05;;;;;;;5.10;4.35;;;13.50;99.90;;;;;;5044485;28;20053;-49
2022/08/22 03:02:46;;;;;;;4.37;3.60;;;13.50;99.90;;;;;;4968868;28;20094;-49
2022/08/22 03:05:24;;;;;;;4.07;3.65;;;13.50;99.90;;;;;;4946445;28;20298;-50
2022/08/22 03:08:12;;;;;;;5.97;3.42;;;13.50;99.90;;;;;;4962850;28;20239;-48
2022/08/22 03:10:48;;;;;;;5.28;4.78;;;13.40;99.90;;;;;;4962839;28;20057;-48
2022/08/22 03:13:44;;;;;;;5.28;4.75;;;13.40;99.90;;;;;;4962647;28;20521;-48
2022/08/22 03:16:21;;;;;;;4.28;3.88;;;13.40;99.90;;;;;;4955945;28;20542;-49
2022/08/22 03:19:01;;;;;;;5.90;4.78;;;13.40;99.90;;;;;;4963067;28;20193;-48
2022/08/22 03:21:53;;;;;;;4.20;3.50;;;13.40;99.90;;;;;;4963839;28;20046;-52
2022/08/22 03:24:40;;;;;;;4.15;3.03;;;13.40;99.90;;;;;;4962669;28;20883;-49
2022/08/22 03:27:20;;;;;;;2.60;2.40;;;13.40;99.90;;;;;;4963188;28;20098;-51
2022/08/22 03:29:52;;;;;;;4.03;2.65;;;13.30;99.90;;;;;;4962048;28;20145;-49
2022/08/22 03:32:21;;;;;;;5.45;4.95;;;13.30;99.90;;;;;;4962849;28;20514;-49
2022/08/22 03:35:03;;;;;;;6.43;5.00;;;13.30;99.90;;;;;;4961048;28;20061;-49
2022/08/22 03:37:36;;;;;;;5.00;4.50;;;13.20;99.90;;;;;;4962199;28;20613;-49
2022/08/22 03:40:24;;;;;;;8.95;4.25;;;13.20;99.90;;;;;;5036699;28;20069;-49
2022/08/22 03:43:02;;;;;;;5.47;4.22;;;13.20;99.90;;;;;;5039832;28;20044;-48
2022/08/22 03:45:59;;;;;;;6.57;4.75;;;13.10;99.90;;;;;;5024149;28;20056;-48
2022/08/22 03:48:25;;;;;;;6.60;5.03;;;13.10;99.90;;;;;;5038937;28;20080;-49
2022/08/22 03:51:10;;;;;;;4.40;4.00;;;13.10;99.90;;;;;;5043783;28;20596;-50
2022/08/22 03:53:57;;;;;;;4.05;3.13;;;13.10;99.90;;;;;;5044002;28;20195;-53
2022/08/22 03:56:49;;;;;;;3.53;3.22;;;13.00;99.90;;;;;;5038683;28;20060;-47
2022/08/22 03:59:53;;;;;;;2.75;2.55;;;13.00;99.90;;;;;;5044461;28;20095;-49
2022/08/22 04:02:58;;;;;;;2.90;2.60;;;12.90;99.90;;;;;;5040289;28;20044;-47
2022/08/22 04:05:58;;;;;;;6.47;2.25;;;12.90;99.90;;;;;;5037252;28;20091;-48
2022/08/22 04:08:36;;;;;;;38.05;3.42;;;12.80;99.90;;;;;;5043187;28;20060;-48
2022/08/22 04:11:06;;;;;;;27.95;2.92;;;12.70;99.90;;;;;;5037623;28;20059;-47
2022/08/22 04:13:35;;;;;;;17.05;2.25;;;12.60;99.90;;;;;;5042285;28;20060;-49
2022/08/22 04:16:19;;;;;;;13.43;1.63;;;12.50;99.90;;;;;;5042417;28;20899;-48
2022/08/22 04:19:09;;;;;;;2.45;0.98;;;12.50;99.90;;;;;;5042866;28;20045;-49
2022/08/22 04:21:56;;;;;;;1.98;1.38;;;12.50;99.90;;;;;;5042378;28;20561;-50
2022/08/22 04:24:31;;;;;;;4.60;1.20;;;12.50;99.90;;;;;;5043288;28;20452;-49
2022/08/22 04:27:09;;;;;;;1.85;1.10;;;12.50;99.90;;;;;;5043219;28;20906;-48
2022/08/22 04:29:46;;;;;;;2.78;1.10;;;12.50;99.90;;;;;;5024910;28;20048;-48
2022/08/22 04:32:25;;;;;;;2.40;1.40;;;12.50;99.90;;;;;;5019897;28;20718;-50
2022/08/22 04:35:01;;;;;;;2.58;1.95;;;12.50;99.90;;;;;;5046989;28;20049;-49
2022/08/22 04:37:27;;;;;;;3.75;1.67;;;12.50;99.90;;;;;;5037313;28;20051;-49
2022/08/22 04:39:52;;;;;;;3.10;1.70;;;12.60;99.90;;;;;;5040750;28;20491;-49
2022/08/22 04:42:30;;;;;;;2.83;1.42;;;12.60;99.90;;;;;;5024404;28;20049;-48
2022/08/22 04:45:01;;;;;;;2.20;1.60;;;12.70;99.90;;;;;;5041639;28;20041;-50
2022/08/22 04:47:49;;;;;;;3.03;2.08;;;12.70;99.90;;;;;;5040995;28;20053;-49
2022/08/22 04:50:25;;;;;;;5.90;2.20;;;12.60;99.90;;;;;;5041804;28;20052;-50
2022/08/22 04:52:55;;;;;;;5.30;3.17;;;12.60;99.90;;;;;;4996414;28;20065;-47
2022/08/22 04:55:36;;;;;;;4.22;2.95;;;12.70;99.90;;;;;;4996839;28;20057;-49
2022/08/22 04:58:32;;;;;;;2.50;2.30;;;12.80;99.90;;;;;;5002511;28;20112;-48
2022/08/22 05:01:17;;;;;;;3.50;3.20;;;12.90;99.90;;;;;;4960889;28;20059;-48
2022/08/22 05:04:23;;;;;;;3.97;2.53;;;13.00;99.90;;;;;;4960526;28;20050;-50
2022/08/22 05:06:53;;;;;;;4.88;3.78;;;13.00;99.90;;;;;;4887681;29;20549;-50
2022/08/22 05:09:25;;;;;;;7.65;5.00;;;13.10;99.90;;;;;;4888456;29;20059;-49
2022/08/22 05:11:56;;;;;;;9.07;5.33;;;13.20;99.90;;;;;;4906784;29;20060;-48
2022/08/22 05:14:35;;;;;;;6.68;3.38;;;13.30;99.90;;;;;;4901526;29;20082;-49
2022/08/22 05:17:06;;;;;;;7.00;4.30;;;13.40;99.90;;;;;;4903725;29;20095;-49
2022/08/22 05:19:37;;;;;;;4.85;3.03;;;13.50;99.90;;;;;;4902730;29;20239;-49
2022/08/22 05:22:09;;;;;;;3.85;2.45;;;13.70;99.90;;;;;;4903893;29;20863;-47
2022/08/22 05:24:41;;;;;;;2.45;2.00;;;14.40;99.90;;;;;;4903498;29;20486;-53
2022/08/22 05:27:21;;;;;;;2.70;1.90;;;15.40;99.90;;;;;;4904397;29;20055;-51
2022/08/22 05:29:50;;;;;;;3.63;2.42;;;16.00;99.90;;;;;;4899595;29;20642;-49
2022/08/22 05:32:26;;;;;;;4.15;1.95;;;15.80;99.90;;;;;;4900364;29;20119;-52
2022/08/22 05:34:57;;;;;;;1.95;1.55;;;15.50;99.90;;;;;;4902578;29;20056;-51
2022/08/22 05:37:54;;;;;;;3.20;2.20;;;15.20;99.90;;;;;;4898861;29;20066;-48
2022/08/22 05:40:27;;;;;;;2.90;1.60;;;14.90;99.90;;;;;;4939229;29;20661;-48
2022/08/22 05:42:55;;;;;;;2.55;2.10;;;14.80;99.90;;;;;;4937015;28;20091;-50
2022/08/22 05:45:22;;;;;;;2.95;1.88;;;14.70;99.90;;;;;;5002330;28;20141;-49
2022/08/22 05:48:03;;;;;;;3.88;3.38;;;14.60;99.90;;;;;;5003768;28;20081;-48
2022/08/22 05:50:40;;;;;;;4.65;4.20;;;14.70;99.90;;;;;;5005454;28;20052;-48
2022/08/22 05:53:11;;;;;;;6.40;4.60;;;14.70;99.90;;;;;;5045660;28;20061;-50
2022/08/22 05:56:01;;;;;;;4.80;3.92;;;14.90;99.90;;;;;;5045237;28;20088;-51
2022/08/22 05:58:46;;;;;;;7.43;5.38;;;14.90;99.90;;;;;;5027220;28;20602;-49
2022/08/22 06:01:34;;;;;;;7.75;5.30;;;15.00;99.90;;;;;;5045359;28;20049;-51
2022/08/22 06:04:00;;;;;;;9.20;6.10;;;15.10;99.90;;;;;;5044191;28;20059;-50
2022/08/22 06:06:29;;;;;;;10.25;6.47;;;15.20;99.90;;;;;;5045266;28;20486;-47
2022/08/22 06:09:11;;;;;;;10.88;6.88;;;15.20;99.90;;;;;;5026397;28;20049;-47
2022/08/22 06:11:46;;;;;;;11.10;7.10;;;15.30;99.90;;;;;;5044798;28;20052;-49
2022/08/22 06:14:41;;;;;;;6.63;5.88;;;15.40;99.90;;;;;;5043470;28;20164;-49
2022/08/22 06:17:20;;;;;;;16.10;7.15;;;15.50;99.90;;;;;;5045207;28;20402;-48
2022/08/22 06:19:49;;;;;;;11.05;6.70;;;15.60;99.90;;;;;;5045327;28;20078;-49
2022/08/22 06:22:24;;;;;;;11.85;6.78;;;15.60;99.90;;;;;;5044814;28;20049;-50
2022/08/22 06:24:52;;;;;;;11.18;6.70;;;15.70;99.90;;;;;;5025956;28;20053;-49
2022/08/22 06:27:25;;;;;;;10.85;7.43;;;15.80;99.90;;;;;;5006093;28;20053;-47
2022/08/22 06:29:56;;;;;;;12.80;8.23;;;15.90;99.90;;;;;;5009113;28;20085;-48
2022/08/22 06:32:28;;;;;;;10.98;7.03;;;15.90;99.90;;;;;;5038513;28;20292;-48
2022/08/22 06:35:00;;;;;;;12.73;7.50;;;16.00;99.90;;;;;;5043981;28;20049;-48
2022/08/22 06:37:33;;;;;;;13.77;7.50;;;16.10;99.90;;;;;;5044211;28;20555;-47
2022/08/22 06:40:01;;;;;;;11.00;7.32;;;16.20;99.90;;;;;;5044484;28;20041;-48
2022/08/22 06:42:31;;;;;;;11.70;7.22;;;16.10;99.90;;;;;;5044965;28;20056;-48
2022/08/22 06:45:10;;;;;;;7.72;5.65;;;16.10;99.90;;;;;;5043322;28;20063;-48
2022/08/22 06:47:44;;;;;;;10.45;5.93;;;16.20;99.90;;;;;;5044593;28;20053;-51
2022/08/22 06:50:30;;;;;;;14.55;6.18;;;16.20;99.90;;;;;;5044685;28;20072;-50
2022/08/22 06:53:19;;;;;;;16.42;6.18;;;16.30;99.90;;;;;;5040731;28;20061;-49
2022/08/22 06:55:56;;;;;;;9.40;6.38;;;16.30;99.90;;;;;;5037072;28;20070;-49
2022/08/22 06:58:42;;;;;;;8.57;5.95;;;16.40;99.90;;;;;;5043989;28;20403;-51
2022/08/22 07:01:34;;;;;;;8.40;6.55;;;16.50;99.90;;;;;;5043975;28;20056;-53
2022/08/22 07:04:07;;;;;;;13.25;7.35;;;16.60;99.90;;;;;;5044314;28;20049;-49
2022/08/22 07:06:41;;;;;;;12.68;7.07;;;16.80;99.90;;;;;;5044492;28;20065;-49
2022/08/22 07:09:15;;;;;;;9.70;6.80;;;16.90;99.90;;;;;;5043374;28;20084;-52
2022/08/22 07:11:42;;;;;;;14.40;7.40;;;17.10;99.90;;;;;;5044613;28;20045;-48
2022/08/22 07:14:10;;;;;;;12.82;7.60;;;17.30;99.90;;;;;;5041944;28;20110;-50
2022/08/22 07:17:03;;;;;;;15.13;8.18;;;17.50;99.90;;;;;;5043615;28;20053;-48
2022/08/22 07:19:37;;;;;;;11.23;7.93;;;17.60;99.90;;;;;;5042884;28;20040;-48
2022/08/22 07:22:22;;;;;;;15.23;7.65;;;17.80;99.90;;;;;;5043762;28;20515;-50
2022/08/22 07:25:08;;;;;;;16.08;8.05;;;18.00;99.90;;;;;;5025886;28;20968;-48
2022/08/22 07:27:43;;;;;;;15.98;7.22;;;18.20;99.90;;;;;;5044305;28;20862;-48
2022/08/22 07:30:13;;;;;;;15.20;7.88;;;18.50;99.90;;;;;;5043378;28;20052;-49
2022/08/22 07:33:07;;;;;;;12.90;7.10;;;18.60;99.90;;;;;;5044202;28;20400;-49
2022/08/22 07:35:42;;;;;;;13.95;7.47;;;18.80;99.90;;;;;;5038321;28;20049;-49
2022/08/22 07:38:17;;;;;;;14.13;7.78;;;19.10;99.90;;;;;;5039915;28;20056;-51
2022/08/22 07:40:59;;;;;;;13.25;6.65;;;19.30;99.90;;;;;;5024710;28;20619;-49
2022/08/22 07:43:40;;;;;;;10.60;6.43;;;19.60;99.90;;;;;;5043385;28;20045;-53
2022/08/22 07:46:15;;;;;;;10.15;6.35;;;19.90;99.90;;;;;;5042433;28;20048;-52
2022/08/22 07:48:50;;;;;;;12.77;6.00;;;20.40;99.90;;;;;;5039426;28;20064;-52
2022/08/22 07:51:22;;;;;;;15.95;6.97;;;20.80;99.90;;;;;;5042761;28;20075;-48
2022/08/22 07:53:58;;;;;;;10.38;5.30;;;21.00;99.90;;;;;;5042918;28;20049;-49
2022/08/22 07:56:27;;;;;;;14.70;6.63;;;21.10;99.90;;;;;;5024575;28;20057;-49
2022/08/22 07:59:04;;;;;;;15.38;6.28;;;21.40;99.90;;;;;;5042959;28;20763;-50
2022/08/22 08:01:31;;;;;;;12.70;6.28;;;21.60;99.90;;;;;;5043080;28;20068;-53
2022/08/22 08:04:06;;;;;;;11.30;5.85;;;21.80;99.90;;;;;;5043218;28;20049;-48
2022/08/22 08:06:33;;;;;;;11.45;6.00;;;21.90;99.90;;;;;;5043315;28;20041;-49
2022/08/22 08:09:00;;;;;;;12.27;5.60;;;22.00;99.90;;;;;;5042079;28;20436;-49
2022/08/22 08:11:32;;;;;;;13.55;6.35;;;22.00;99.90;;;;;;5023738;28;20049;-53
2022/08/22 08:14:02;;;;;;;11.03;5.23;;;22.10;99.90;;;;;;5042358;28;20395;-52
2022/08/22 08:16:39;;;;;;;13.43;5.90;;;22.20;99.90;;;;;;5042659;28;20048;-52
2022/08/22 08:19:06;;;;;;;13.68;5.63;;;22.20;99.90;;;;;;5042241;28;20087;-54
2022/08/22 08:21:36;;;;;;;11.85;5.38;;;22.40;99.90;;;;;;5043460;28;20049;-53
2022/08/22 08:24:06;;;;;;;15.15;6.20;;;22.70;99.90;;;;;;5024656;28;20088;-54
2022/08/22 08:28:32;;;;;;;12.00;5.07;;;22.70;99.90;;;;;;5008636;28;20840;-52
2022/08/22 08:29:28;;;;;;;12.90;5.45;;;22.80;99.90;;;;;;5040342;28;20590;-51
2022/08/22 08:31:55;;;;;;;14.50;5.32;;;22.80;99.90;;;;;;5042139;28;20041;-49
2022/08/22 08:34:25;;;;;;;6.93;3.67;;;22.90;99.90;;;;;;5024582;28;20102;-55
2022/08/22 08:36:56;;;;;;;9.90;4.25;;;22.90;99.90;;;;;;5042950;28;20447;-51
2022/08/22 08:39:48;;;;;;;11.02;4.82;;;22.80;99.90;;;;;;5022425;28;20183;-50
2022/08/22 08:45:43;;;;;;;10.45;4.30;;;22.90;99.90;;;;;;5042672;28;20057;-51
2022/08/22 08:48:37;;;;;;;12.60;4.72;;;22.90;99.90;;;;;;5042097;28;20076;-54
2022/08/22 08:51:28;;;;;;;10.52;3.75;;;23.00;99.90;;;;;;5041434;28;20052;-52
2022/08/22 08:54:29;;;;;;;9.27;4.13;;;23.10;99.90;;;;;;5042123;28;20136;-55
2022/08/22 08:57:23;;;;;;;10.27;3.80;;;23.20;99.90;;;;;;4959869;28;20058;-49
2022/08/22 09:00:13;;;;;;;9.60;4.28;;;23.50;99.90;;;;;;4944288;28;20155;-51
2022/08/22 09:03:01;;;;;;;10.23;3.78;;;23.70;99.90;;;;;;4944234;28;20062;-51
2022/08/22 09:06:15;;;;;;;7.53;4.10;;;23.50;99.90;;;;;;4960414;28;21019;-54
2022/08/22 09:08:54;;;;;;;8.40;3.30;;;23.70;99.90;;;;;;4903073;29;20060;-50
2022/08/22 09:11:38;;;;;;;9.38;3.50;;;23.70;99.90;;;;;;4903049;29;20056;-51
2022/08/22 09:14:38;;;;;;;10.85;3.40;;;23.60;99.90;;;;;;4903118;29;20060;-53
2022/08/22 09:17:42;;;;;;;8.95;3.53;;;23.60;99.90;;;;;;4887845;29;20578;-50
2022/08/22 09:20:47;;;;;;;8.80;2.95;;;23.60;99.90;;;;;;4896465;29;20091;-51
2022/08/22 09:23:36;;;;;;;10.32;3.55;;;23.70;99.90;;;;;;4810403;29;20471;-55
2022/08/22 09:26:08;;;;;;;11.60;4.10;;;23.80;99.90;;;;;;4813090;29;20489;-51
2022/08/22 09:28:45;;;;;;;8.40;3.20;;;23.80;99.90;;;;;;4798538;29;20137;-54
2022/08/22 09:31:26;;;;;;;9.10;3.28;;;23.90;99.90;;;;;;4845332;29;20068;-51
2022/08/22 09:33:53;;;;;;;8.63;3.50;;;23.90;99.90;;;;;;4866616;29;20476;-55
2022/08/22 09:36:43;;;;;;;7.22;3.08;;;23.90;99.90;;;;;;4868618;29;20045;-52
2022/08/22 09:39:16;;;;;;;8.27;2.90;;;23.80;99.90;;;;;;4867654;29;20151;-52
2022/08/22 09:42:28;;;;;;;10.68;3.67;;;23.80;99.90;;;;;;4865374;29;20064;-55
2022/08/22 09:45:06;;;;;;;10.05;3.28;;;23.90;99.90;;;;;;4877472;29;20593;-55
2022/08/22 09:47:40;;;;;;;9.00;4.03;;;23.90;99.90;;;;;;4903270;29;20060;-55
2022/08/22 09:50:17;;;;;;;6.38;2.42;;;23.80;99.20;;;;;;4901350;29;20051;-54
2022/08/22 09:53:08;;;;;;;7.22;2.45;;;23.80;98.80;;;;;;4906937;29;20052;-55
2022/08/22 09:55:47;;;;;;;7.43;2.47;;;23.80;97.40;;;;;;4901388;29;20052;-54
2022/08/22 09:58:37;;;;;;;7.97;3.20;;;23.70;97.60;;;;;;4906481;29;20070;-53
2022/08/22 10:01:09;;;;;;;12.25;3.13;;;23.80;98.00;;;;;;4961479;28;20204;-52
2022/08/22 10:04:10;;;;;;;7.88;2.85;;;23.90;98.50;;;;;;4983081;28;20835;-55
2022/08/22 10:07:03;;;;;;;6.95;2.90;;;24.10;98.50;;;;;;4962182;28;20089;-55
2022/08/22 10:09:50;;;;;;;9.15;3.58;;;24.00;98.70;;;;;;4940848;28;20105;-52
2022/08/22 10:12:26;;;;;;;10.80;3.80;;;24.00;99.50;;;;;;4963402;28;20054;-54
2022/08/22 10:15:04;;;;;;;10.52;3.63;;;24.00;99.00;;;;;;4947144;28;20062;-55
2022/08/22 10:17:37;;;;;;;7.88;2.97;;;24.20;98.90;;;;;;4962125;28;20062;-55
2022/08/22 10:20:19;;;;;;;8.35;3.15;;;24.40;98.90;;;;;;4947154;28;20098;-55
2022/08/22 10:22:59;;;;;;;12.35;3.58;;;24.60;98.90;;;;;;4963429;28;20458;-56
2022/08/22 10:25:40;;;;;;;10.23;3.90;;;24.60;99.00;;;;;;4963271;28;20051;-57
2022/08/22 10:28:18;;;;;;;6.32;3.17;;;24.40;98.40;;;;;;4963276;28;20577;-55
2022/08/22 10:31:20;;;;;;;6.72;3.25;;;24.50;98.60;;;;;;4963788;28;20062;-57
2022/08/22 10:34:11;;;;;;;6.68;2.78;;;24.60;97.20;;;;;;4962894;28;20506;-55
2022/08/22 10:36:57;;;;;;;5.25;2.63;;;24.70;98.30;;;;;;4962280;28;20146;-56
2022/08/22 10:39:30;;;;;;;7.22;2.88;;;24.90;97.80;;;;;;4955311;28;20062;-55
2022/08/22 10:42:10;;;;;;;6.55;2.90;;;25.00;97.10;;;;;;4962977;28;20185;-56
2022/08/22 10:44:50;;;;;;;11.38;3.08;;;25.10;97.30;;;;;;5003201;28;20054;-55
2022/08/22 10:47:22;;;;;;;7.70;2.95;;;25.00;96.40;;;;;;5004656;28;20046;-57
2022/08/22 10:49:57;;;;;;;13.00;3.40;;;24.90;97.00;;;;;;5002093;28;20049;-55
2022/08/22 10:52:30;;;;;;;7.38;2.78;;;25.00;97.30;;;;;;5012622;28;20065;-56
2022/08/22 10:55:19;;;;;;;;;;;24.90;97.40;;;;;;5024439;28;20104;-55
2022/08/22 10:58:33;;;;;;;8.52;2.90;;;24.70;97.80;;;;;;4962720;28;20491;-55
2022/08/22 11:01:03;;;;;;;6.45;3.10;;;24.80;98.10;;;;;;4909552;29;20423;-54
2022/08/22 11:04:19;;;;;;;8.48;3.22;;;24.90;97.90;;;;;;4906129;29;20438;-54
2022/08/22 11:06:51;;;;;;;8.70;3.15;;;25.00;97.10;;;;;;4834065;29;20071;-56
2022/08/22 11:09:40;;;;;;;6.77;2.73;;;24.60;97.20;;;;;;4848785;29;20065;-55
2022/08/22 11:12:33;;;;;;;8.50;3.22;;;24.50;97.00;;;;;;4832856;29;20061;-55
2022/08/22 11:15:04;;;;;;;7.53;3.17;;;24.20;97.60;;;;;;4848951;29;20068;-58
2022/08/22 11:17:52;;;;;;;10.20;3.03;;;24.40;98.40;;;;;;4833603;29;20513;-56
2022/08/22 11:20:26;;;;;;;7.32;4.18;;;24.60;97.90;;;;;;4848717;29;20530;-57
2022/08/22 11:23:18;;;;;;;7.85;2.88;;;24.80;97.80;;;;;;4849850;29;20114;-57
2022/08/22 11:26:11;;;;;;;7.07;2.72;;;25.00;98.00;;;;;;4848729;29;20069;-54
2022/08/22 11:29:09;;;;;;;6.53;3.00;;;24.90;97.30;;;;;;4848578;29;20107;-56
2022/08/22 11:31:44;;;;;;;9.00;3.45;;;25.10;97.60;;;;;;4848123;29;20062;-54
2022/08/22 11:34:10;;;;;;;7.30;2.78;;;25.20;96.80;;;;;;4864784;29;20071;-55
2022/08/22 11:36:40;;;;;;;9.23;3.15;;;25.30;96.70;;;;;;4926769;29;20207;-57
2022/08/22 11:39:35;;;;;;;7.18;2.90;;;25.00;96.40;;;;;;4943273;29;20055;-56
2022/08/22 11:42:20;;;;;;;7.07;3.03;;;24.90;97.10;;;;;;4947557;28;20069;-55
2022/08/22 11:44:54;;;;;;;7.60;2.70;;;24.80;97.30;;;;;;5024261;28;20060;-56
2022/08/22 11:47:30;;;;;;;6.80;3.10;;;24.90;96.60;;;;;;5023056;28;20124;-56
2022/08/22 11:50:10;;;;;;;8.52;2.78;;;25.10;97.10;;;;;;5019030;28;20061;-55
2022/08/22 11:53:04;;;;;;;10.50;3.05;;;25.30;97.00;;;;;;5035885;28;20518;-56
2022/08/22 11:55:47;;;;;;;10.27;3.58;;;25.60;96.00;;;;;;5043557;28;20099;-56
2022/08/22 11:58:53;;;;;;;9.50;2.92;;;25.60;95.40;;;;;;5025157;28;20642;-57
2022/08/22 12:01:53;;;;;;;6.22;2.85;;;25.50;95.70;;;;;;5018813;28;20088;-56
2022/08/22 12:04:42;;;;;;;8.98;3.28;;;25.40;95.60;;;;;;5039545;28;20553;-56
2022/08/22 12:07:18;;;;;;;7.35;3.15;;;25.10;96.10;;;;;;5041993;28;20085;-57
2022/08/22 12:09:56;;;;;;;11.35;3.80;;;25.00;96.00;;;;;;5041859;28;20053;-56
2022/08/22 12:12:52;;;;;;;7.28;2.97;;;24.90;95.90;;;;;;5042332;28;20494;-56
2022/08/22 12:15:24;;;;;;;7.00;2.97;;;24.80;95.90;;;;;;4961373;28;20141;-56
2022/08/22 12:18:27;;;;;;;8.27;2.72;;;24.70;96.30;;;;;;4960610;28;20059;-55
2022/08/22 12:21:14;;;;;;;6.88;2.92;;;24.60;96.70;;;;;;4944568;28;20070;-56
2022/08/22 12:24:02;;;;;;;7.53;3.72;;;24.60;96.60;;;;;;4944569;28;20055;-55
2022/08/22 12:26:40;;;;;;;9.15;3.10;;;24.50;97.30;;;;;;4930543;28;20059;-57
2022/08/22 12:29:41;;;;;;;8.00;3.17;;;24.50;96.70;;;;;;4954928;28;20062;-57
2022/08/22 12:32:32;;;;;;;8.93;3.30;;;24.40;96.60;;;;;;4954046;28;20047;-56
2022/08/22 12:35:35;;;;;;;8.48;3.10;;;24.30;96.80;;;;;;4956316;28;20081;-57
2022/08/22 12:38:26;;;;;;;9.90;3.35;;;24.30;96.90;;;;;;4954341;28;20082;-57
2022/08/22 12:41:16;;;;;;;6.57;3.28;;;24.20;96.90;;;;;;4954335;28;20073;-54
2022/08/22 12:44:12;;;;;;;11.43;3.13;;;24.30;97.00;;;;;;4953340;28;20058;-54
2022/08/22 12:47:15;;;;;;;9.02;2.50;;;24.30;96.90;;;;;;4894981;29;20048;-55
2022/08/22 12:50:14;;;;;;;8.05;3.20;;;24.50;95.80;;;;;;4847401;29;20062;-59
2022/08/22 12:53:17;;;;;;;7.40;2.58;;;24.50;96.40;;;;;;4877024;29;20272;-54
2022/08/22 12:56:01;;;;;;;7.60;3.17;;;24.60;96.10;;;;;;4892839;29;20064;-54
2022/08/22 12:58:48;;;;;;;7.07;3.10;;;24.70;95.90;;;;;;4899598;29;20105;-56
2022/08/22 13:01:15;;;;;;;8.13;2.80;;;24.70;95.90;;;;;;4904381;29;20143;-55
2022/08/22 13:03:46;;;;;;;10.40;3.42;;;24.50;95.40;;;;;;4906505;29;21999;-54
2022/08/22 13:06:47;;;;;;;7.15;2.90;;;24.50;95.90;;;;;;4905775;29;20106;-55
2022/08/22 13:09:38;;;;;;;7.18;3.13;;;24.40;95.80;;;;;;4858478;29;20593;-56
2022/08/22 13:12:31;;;;;;;12.27;3.38;;;24.40;95.60;;;;;;4799620;29;20066;-55
2022/08/22 13:15:19;;;;;;;6.65;3.10;;;24.10;96.40;;;;;;4800963;29;20086;-55
2022/08/22 13:17:58;;;;;;;8.20;2.78;;;23.90;96.00;;;;;;4800422;29;20062;-54
2022/08/22 13:20:36;;;;;;;7.47;3.00;;;23.80;96.40;;;;;;4803062;29;20200;-54
2022/08/22 13:23:36;;;;;;;7.72;2.83;;;23.90;96.90;;;;;;4804944;29;20205;-54
2022/08/22 13:26:14;;;;;;;7.80;2.80;;;24.10;97.10;;;;;;4838364;29;20064;-54
2022/08/22 13:28:56;;;;;;;8.25;2.85;;;24.10;96.20;;;;;;4872618;29;20049;-53
2022/08/22 13:31:37;;;;;;;5.50;2.97;;;24.20;96.10;;;;;;4864209;29;20077;-54
2022/08/22 13:34:11;;;;;;;5.70;3.15;;;24.10;96.20;;;;;;4857739;29;20771;-54
2022/08/22 13:36:46;;;;;;;7.50;3.47;;;24.10;96.00;;;;;;4874544;29;20057;-55
2022/08/22 13:39:12;;;;;;;4.80;3.10;;;24.00;95.80;;;;;;4872949;29;20076;-54
2022/08/22 13:42:03;;;;;;;7.47;2.83;;;24.10;96.20;;;;;;4872737;29;20052;-56
2022/08/22 13:44:36;;;;;;;7.72;2.60;;;24.20;96.20;;;;;;4878865;29;20465;-53
2022/08/22 13:47:09;;;;;;;8.30;3.17;;;24.20;95.90;;;;;;4937813;28;20134;-56
2022/08/22 13:49:50;;;;;;;8.38;2.97;;;24.10;96.20;;;;;;5008291;28;20060;-54
2022/08/22 13:52:30;;;;;;;8.32;2.95;;;24.10;96.10;;;;;;5016452;28;20100;-54
2022/08/22 13:55:10;;;;;;;5.88;2.72;;;24.00;95.90;;;;;;5040151;28;20140;-53
2022/08/22 13:57:45;;;;;;;6.65;3.53;;;24.00;95.90;;;;;;5036435;28;20045;-54
2022/08/22 14:00:17;;;;;;;9.10;3.78;;;24.00;96.10;;;;;;5039946;28;20167;-53
2022/08/22 14:03:14;;;;;;;7.93;3.58;;;24.10;96.40;;;;;;5039775;28;20103;-54